Time;durP1;ratioP1;P1;durP2;ratioP2;P2;SDS_P1;SDS_P2;PMS_P1;PMS_P2;Temp;Humidity;BMP_temperature;BMP_pressure;BME280_temperature;BME280_humidity;BME280_pressure;Samples;Min_cycle;Max_cycle;Signal;HPM_P1;HPM_P2
2023/02/04 00:00:41;;;;;;;;;;;;;;;-1.67;98.29;96621.51;110225;1244;60126;-70
2023/02/04 00:03:28;;;;;;;;;;;;;;;-1.65;97.86;96619.58;110135;1245;71611;-71
2023/02/04 00:05:57;;;;;;;;;;;;;;;-1.65;97.76;96621.09;110191;1245;69047;-71
2023/02/04 00:08:25;;;;;;;;;;;;;;;-1.65;98.72;96621.11;110083;1245;69262;-71
2023/02/04 00:10:55;;;;;;;;;;;;;;;-1.64;98.88;96626.88;110109;1244;60188;-71
2023/02/04 00:13:25;;;;;;;;;;;;;;;-1.64;98.02;96624.80;110094;1245;59669;-71
2023/02/04 00:15:54;;;;;;;;;;;;;;;-1.64;97.79;96621.58;110081;1245;71813;-71
2023/02/04 00:18:23;;;;;;;;;;;;;;;-1.64;98.12;96620.06;110151;1241;69264;-70
2023/02/04 00:20:52;;;;;;;;;;;;;;;-1.67;98.01;96620.82;110088;1245;68467;-71
2023/02/04 00:23:21;;;;;;;;;;;;;;;-1.69;98.05;96617.98;110154;1244;59758;-71
2023/02/04 00:25:50;;;;;;;;;;;;;;;-1.71;97.98;96613.79;110190;1241;59649;-71
2023/02/04 00:28:20;;;;;;;;;;;;;;;-1.72;98.00;96608.70;110137;1244;71416;-71
2023/02/04 00:30:49;;;;;;;;;;;;;;;-1.72;98.03;96607.15;110155;1246;69581;-71
2023/02/04 00:33:18;;;;;;;;;;;;;;;-1.73;98.06;96607.02;110145;1245;69770;-70
2023/02/04 00:35:48;;;;;;;;;;;;;;;-1.73;99.78;96599.86;110168;1245;59780;-71
2023/02/04 00:38:17;;;;;;;;;;;;;;;-1.71;100.00;96595.17;110090;1244;59674;-71
2023/02/04 00:40:47;;;;;;;;;;;;;;;-1.69;100.00;96593.42;110128;1245;69813;-71
2023/02/04 00:43:18;;;;;;;;;;;;;;;-1.69;99.98;96589.80;109832;1245;68504;-71
2023/02/04 00:45:48;;;;;;;;;;;;;;;-1.68;100.00;96588.23;110172;1244;69874;-71
2023/02/04 00:48:18;;;;;;;;;;;;;;;-1.67;100.00;96583.41;110116;1245;59744;-71
2023/02/04 00:50:48;;;;;;;;;;;;;;;-1.66;100.00;96580.98;110118;1245;59762;-71
2023/02/04 00:53:17;;;;;;;;;;;;;;;-1.63;100.00;96580.36;110133;1243;72001;-71
2023/02/04 00:55:47;;;;;;;;;;;;;;;-1.62;100.00;96574.84;110186;1246;70254;-71
2023/02/04 00:58:17;;;;;;;;;;;;;;;-1.61;100.00;96574.98;110190;1241;69858;-71
2023/02/04 01:00:46;;;;;;;;;;;;;;;-1.60;100.00;96574.77;110157;1244;59779;-70
2023/02/04 01:03:15;;;;;;;;;;;;;;;-1.60;100.00;96576.46;110138;1243;59740;-71
2023/02/04 01:05:46;;;;;;;;;;;;;;;-1.59;100.00;96574.71;110263;1244;71603;-70
2023/02/04 01:08:15;;;;;;;;;;;;;;;-1.57;100.00;96575.19;110129;1241;69066;-71
2023/02/04 01:10:44;;;;;;;;;;;;;;;-1.56;100.00;96573.58;110153;1243;69908;-70
2023/02/04 01:13:13;;;;;;;;;;;;;;;-1.55;100.00;96569.27;110139;1245;59696;-70
2023/02/04 01:15:43;;;;;;;;;;;;;;;-1.53;100.00;96566.83;110130;1241;59702;-70
2023/02/04 01:18:13;;;;;;;;;;;;;;;-1.54;100.00;96561.02;110128;1245;70732;-70
2023/02/04 01:20:43;;;;;;;;;;;;;;;-1.51;100.00;96561.66;110117;1245;69115;-71
2023/02/04 01:23:12;;;;;;;;;;;;;;;-1.50;100.00;96561.43;110104;1245;69270;-70
2023/02/04 01:25:41;;;;;;;;;;;;;;;-1.50;100.00;96558.36;110086;1246;59735;-70
2023/02/04 01:28:11;;;;;;;;;;;;;;;-1.50;100.00;96556.11;110180;1241;59699;-71
2023/02/04 01:30:40;;;;;;;;;;;;;;;-1.49;100.00;96553.67;110161;1243;71395;-70
2023/02/04 01:33:10;;;;;;;;;;;;;;;-1.48;100.00;96553.80;110156;1245;68293;-71
2023/02/04 01:35:39;;;;;;;;;;;;;;;-1.48;100.00;96551.60;110176;1246;69561;-71
2023/02/04 01:38:08;;;;;;;;;;;;;;;-1.49;100.00;96551.48;110118;1244;59826;-70
2023/02/04 01:40:38;;;;;;;;;;;;;;;-1.50;100.00;96551.85;110102;1246;59673;-70
2023/02/04 01:43:09;;;;;;;;;;;;;;;-1.49;100.00;96550.79;110112;1242;71455;-70
2023/02/04 01:45:39;;;;;;;;;;;;;;;-1.49;100.00;96554.00;110204;1241;68539;-70
2023/02/04 01:48:08;;;;;;;;;;;;;;;-1.48;100.00;96551.42;110191;1245;69262;-70
2023/02/04 01:50:38;;;;;;;;;;;;;;;-1.48;100.00;96552.42;110141;1245;59701;-70
2023/02/04 01:53:08;;;;;;;;;;;;;;;-1.45;100.00;96550.13;110137;1246;59764;-69
2023/02/04 01:55:38;;;;;;;;;;;;;;;-1.43;100.00;96551.75;110163;1244;71956;-70
2023/02/04 01:58:11;;;;;;;;;;;;;;;-1.41;100.00;96551.17;110170;1244;69207;-70
2023/02/04 02:00:40;;;;;;;;;;;;;;;-1.40;100.00;96550.42;109795;1245;69945;-70
2023/02/04 02:03:12;;;;;;;;;;;;;;;-1.39;100.00;96549.35;110112;1246;59677;-70
2023/02/04 02:05:52;;;;;;;;;;;;;;;-1.37;100.00;96551.68;110009;1245;59726;-69
2023/02/04 02:08:23;;;;;;;;;;;;;;;-1.35;100.00;96553.46;110085;1245;71433;-70
2023/02/04 02:10:53;;;;;;;;;;;;;;;-1.33;100.00;96555.27;110076;1245;69722;-70
2023/02/04 02:13:22;;;;;;;;;;;;;;;-1.34;100.00;96555.83;110156;1242;69931;-70
2023/02/04 02:15:53;;;;;;;;;;;;;;;-1.33;100.00;96553.41;110099;1252;59670;-70
2023/02/04 02:18:24;;;;;;;;;;;;;;;-1.34;100.00;96549.84;110121;1245;59681;-70
2023/02/04 02:20:57;;;;;;;;;;;;;;;-1.34;100.00;96547.95;110131;1246;70650;-69
2023/02/04 02:23:45;;;;;;;;;;;;;;;-1.33;100.00;96544.33;109833;1244;68595;-69
2023/02/04 02:26:17;;;;;;;;;;;;;;;-1.32;100.00;96540.69;110124;1245;69538;-70
2023/02/04 02:28:48;;;;;;;;;;;;;;;-1.32;100.00;96536.95;110103;1245;60125;-70
2023/02/04 02:31:19;;;;;;;;;;;;;;;-1.32;100.00;96542.25;110135;1246;59717;-70
2023/02/04 02:33:50;;;;;;;;;;;;;;;-1.33;100.00;96541.95;110098;1246;71200;-70
2023/02/04 02:36:22;;;;;;;;;;;;;;;-1.32;100.00;96542.95;110165;1245;69319;-70
2023/02/04 02:38:54;;;;;;;;;;;;;;;-1.32;100.00;96547.72;110102;1241;68395;-70
2023/02/04 02:41:23;;;;;;;;;;;;;;;-1.32;100.00;96546.34;110132;1242;59731;-70
2023/02/04 02:43:53;;;;;;;;;;;;;;;-1.33;100.00;96543.67;110173;1246;60088;-70
2023/02/04 02:46:22;;;;;;;;;;;;;;;-1.34;100.00;96544.55;110093;1251;71952;-70
2023/02/04 02:48:52;;;;;;;;;;;;;;;-1.34;100.00;96546.08;110090;1252;69829;-70
2023/02/04 02:51:22;;;;;;;;;;;;;;;-1.34;100.00;96546.41;110077;1245;68548;-70
2023/02/04 02:53:53;;;;;;;;;;;;;;;-1.33;100.00;96547.93;109816;1245;59661;-70
2023/02/04 02:56:23;;;;;;;;;;;;;;;-1.31;100.00;96549.88;109936;1245;59746;-70
2023/02/04 02:58:52;;;;;;;;;;;;;;;-1.29;100.00;96551.20;109933;1245;71954;-70
2023/02/04 03:01:22;;;;;;;;;;;;;;;-1.28;100.00;96545.53;109933;1245;69333;-70
2023/02/04 03:03:52;;;;;;;;;;;;;;;-1.28;100.00;96549.77;110107;1245;69927;-70
2023/02/04 03:06:24;;;;;;;;;;;;;;;-1.28;100.00;96550.30;110098;1245;59605;-70
2023/02/04 03:08:55;;;;;;;;;;;;;;;-1.28;100.00;96552.34;110110;1245;59754;-70
2023/02/04 03:11:28;;;;;;;;;;;;;;;-1.27;100.00;96547.54;110184;1243;70499;-70
2023/02/04 03:14:02;;;;;;;;;;;;;;;-1.27;100.00;96549.73;110194;1246;69149;-70
2023/02/04 03:16:33;;;;;;;;;;;;;;;-1.27;100.00;96549.91;110118;1251;68474;-70
2023/02/04 03:19:04;;;;;;;;;;;;;;;-1.28;100.00;96547.05;110139;1241;59673;-71
2023/02/04 03:21:33;;;;;;;;;;;;;;;-1.27;100.00;96545.65;110134;1245;59681;-70
2023/02/04 03:24:04;;;;;;;;;;;;;;;-1.29;100.00;96544.17;110137;1244;71297;-70
2023/02/04 03:26:34;;;;;;;;;;;;;;;-1.31;100.00;96543.39;110172;1241;69415;-70
2023/02/04 03:29:12;;;;;;;;;;;;;;;-1.31;100.00;96542.88;110131;1246;69320;-71
2023/02/04 03:31:43;;;;;;;;;;;;;;;-1.32;100.00;96540.86;110181;1244;60002;-70
2023/02/04 03:34:13;;;;;;;;;;;;;;;-1.31;100.00;96544.60;110208;1246;59644;-72
2023/02/04 03:36:43;;;;;;;;;;;;;;;-1.33;100.00;96545.34;110224;1245;71840;-71
2023/02/04 03:39:12;;;;;;;;;;;;;;;-1.33;100.00;96547.23;110264;1245;68555;-70
2023/02/04 03:41:42;;;;;;;;;;;;;;;-1.33;100.00;96546.39;110145;1243;69891;-71
2023/02/04 03:44:12;;;;;;;;;;;;;;;-1.33;100.00;96547.08;110184;1245;59721;-70
2023/02/04 03:46:42;;;;;;;;;;;;;;;-1.32;100.00;96546.36;110167;1243;59722;-70
2023/02/04 03:49:12;;;;;;;;;;;;;;;-1.32;100.00;96552.17;110156;1243;70468;-70
2023/02/04 03:51:42;;;;;;;;;;;;;;;-1.33;100.00;96554.27;110093;1246;68753;-71
2023/02/04 03:54:12;;;;;;;;;;;;;;;-1.33;100.00;96550.83;110050;1245;69096;-71
2023/02/04 03:56:43;;;;;;;;;;;;;;;-1.34;100.00;96546.77;110106;1244;59740;-71
2023/02/04 03:59:13;;;;;;;;;;;;;;;-1.34;100.00;96544.36;110140;1245;59646;-70
2023/02/04 04:01:42;;;;;;;;;;;;;;;-1.33;100.00;96543.84;110152;1243;70642;-71
2023/02/04 04:04:12;;;;;;;;;;;;;;;-1.33;100.00;96540.39;110163;1241;68543;-70
2023/02/04 04:06:41;;;;;;;;;;;;;;;-1.32;100.00;96543.77;110120;1244;69334;-70
2023/02/04 04:09:10;;;;;;;;;;;;;;;-1.31;100.00;96548.52;110115;1244;59692;-70
2023/02/04 04:11:39;;;;;;;;;;;;;;;-1.29;100.00;96548.46;110078;1244;59652;-71
2023/02/04 04:14:10;;;;;;;;;;;;;;;-1.28;100.00;96552.20;110097;1244;71615;-70
2023/02/04 04:16:39;;;;;;;;;;;;;;;-1.27;100.00;96555.56;110121;1245;69083;-70
2023/02/04 04:19:09;;;;;;;;;;;;;;;-1.26;100.00;96556.73;110140;1245;69197;-70
2023/02/04 04:21:38;;;;;;;;;;;;;;;-1.27;100.00;96561.01;110184;1245;59688;-71
2023/02/04 04:24:08;;;;;;;;;;;;;;;-1.26;100.00;96564.55;110174;1241;59737;-70
2023/02/04 04:26:38;;;;;;;;;;;;;;;-1.25;100.00;96565.41;110144;1245;70938;-71
2023/02/04 04:29:10;;;;;;;;;;;;;;;-1.25;100.00;96562.66;110154;1244;69471;-70
2023/02/04 04:31:40;;;;;;;;;;;;;;;-1.27;100.00;96567.19;110123;1246;69194;-71
2023/02/04 04:34:10;;;;;;;;;;;;;;;-1.32;100.00;96568.06;110160;1244;60088;-71
2023/02/04 04:36:39;;;;;;;;;;;;;;;-1.36;100.00;96568.38;110134;1244;59706;-71
2023/02/04 04:39:08;;;;;;;;;;;;;;;-1.38;100.00;96566.75;110139;1245;72023;-70
2023/02/04 04:41:38;;;;;;;;;;;;;;;-1.38;100.00;96568.31;110111;1245;69373;-70
2023/02/04 04:44:08;;;;;;;;;;;;;;;-1.39;100.00;96571.73;110098;1252;69569;-71
2023/02/04 04:46:39;;;;;;;;;;;;;;;-1.37;100.00;96570.85;109819;1245;59691;-70
2023/02/04 04:49:09;;;;;;;;;;;;;;;-1.37;100.00;96572.56;109797;1246;59707;-70
2023/02/04 04:51:38;;;;;;;;;;;;;;;-1.38;100.00;96570.52;110085;1245;71383;-71
2023/02/04 04:54:07;;;;;;;;;;;;;;;-1.39;100.00;96566.63;110121;1246;69840;-70
2023/02/04 04:56:36;;;;;;;;;;;;;;;-1.40;100.00;96564.45;110104;1247;69296;-71
2023/02/04 04:59:06;;;;;;;;;;;;;;;-1.41;100.00;96567.39;110081;1245;59751;-70
2023/02/04 05:01:34;;;;;;;;;;;;;;;-1.42;100.00;96569.48;110166;1245;59689;-70
2023/02/04 05:04:04;;;;;;;;;;;;;;;-1.42;100.00;96564.89;110097;1245;71437;-70
2023/02/04 05:06:33;;;;;;;;;;;;;;;-1.42;100.00;96566.91;110190;1246;69608;-70
2023/02/04 05:09:03;;;;;;;;;;;;;;;-1.42;100.00;96564.17;110121;1241;69114;-70
2023/02/04 05:11:32;;;;;;;;;;;;;;;-1.41;100.00;96568.23;110143;1241;59761;-70
2023/02/04 05:14:01;;;;;;;;;;;;;;;-1.41;100.00;96574.73;110178;1241;59699;-71
2023/02/04 05:16:30;;;;;;;;;;;;;;;-1.38;100.00;96576.02;110257;1245;71436;-70
2023/02/04 05:19:00;;;;;;;;;;;;;;;-1.39;100.00;96577.06;110129;1243;69448;-70
2023/02/04 05:21:29;;;;;;;;;;;;;;;-1.40;100.00;96577.77;110159;1245;68311;-70
2023/02/04 05:23:58;;;;;;;;;;;;;;;-1.42;100.00;96575.96;110162;1243;59706;-71
2023/02/04 05:26:26;;;;;;;;;;;;;;;-1.41;100.00;96576.13;110228;1245;60091;-71
2023/02/04 05:29:01;;;;;;;;;;;;;;;-1.40;100.00;96579.66;110068;1246;72489;-71
2023/02/04 05:31:30;;;;;;;;;;;;;;;-1.40;100.00;96585.11;110201;1243;69403;-70
2023/02/04 05:34:00;;;;;;;;;;;;;;;-1.40;100.00;96588.02;110275;1244;69725;-71
2023/02/04 05:36:30;;;;;;;;;;;;;;;-1.40;100.00;96589.38;110155;1245;59696;-70
2023/02/04 05:38:58;;;;;;;;;;;;;;;-1.41;100.00;96592.70;110196;1241;59683;-70
2023/02/04 05:41:27;;;;;;;;;;;;;;;-1.40;100.00;96597.45;110146;1246;70917;-71
2023/02/04 05:43:56;;;;;;;;;;;;;;;-1.40;100.00;96600.67;110286;1245;69664;-71
2023/02/04 05:46:25;;;;;;;;;;;;;;;-1.41;100.00;96603.42;110427;1243;69748;-71
2023/02/04 05:48:55;;;;;;;;;;;;;;;-1.39;100.00;96609.86;110188;1247;59681;-70
2023/02/04 05:51:23;;;;;;;;;;;;;;;-1.40;100.00;96614.19;110201;1241;59696;-71
2023/02/04 05:53:52;;;;;;;;;;;;;;;-1.41;100.00;96614.20;110150;1244;71341;-71
2023/02/04 05:56:22;;;;;;;;;;;;;;;-1.40;100.00;96617.42;110129;1245;69329;-71
2023/02/04 05:58:50;;;;;;;;;;;;;;;-1.39;100.00;96623.20;110135;1241;68724;-71
2023/02/04 06:01:19;;;;;;;;;;;;;;;-1.38;100.00;96623.70;110190;1242;59744;-69
2023/02/04 06:03:48;;;;;;;;;;;;;;;-1.37;100.00;96628.77;110095;1245;59683;-69
2023/02/04 06:06:17;;;;;;;;;;;;;;;-1.33;100.00;96627.09;110248;1241;71169;-68
2023/02/04 06:08:45;;;;;;;;;;;;;;;-1.29;100.00;96628.98;110148;1244;68477;-69
2023/02/04 06:11:14;;;;;;;;;;;;;;;-1.28;100.00;96632.86;110166;1244;68514;-69
2023/02/04 06:13:43;;;;;;;;;;;;;;;-1.26;100.00;96631.95;110176;1245;59738;-69
2023/02/04 06:16:11;;;;;;;;;;;;;;;-1.26;100.00;96637.05;110189;1243;59742;-69
2023/02/04 06:18:42;;;;;;;;;;;;;;;-1.26;100.00;96639.45;110256;1245;71160;-69
2023/02/04 06:21:10;;;;;;;;;;;;;;;-1.24;100.00;96641.61;110027;1245;69137;-69
2023/02/04 06:23:39;;;;;;;;;;;;;;;-1.22;100.00;96645.77;110140;1244;69111;-69
2023/02/04 06:26:09;;;;;;;;;;;;;;;-1.18;100.00;96645.67;110181;1245;59680;-69
2023/02/04 06:28:38;;;;;;;;;;;;;;;-1.15;100.00;96649.30;110137;1243;59760;-71
2023/02/04 06:31:07;;;;;;;;;;;;;;;-1.13;100.00;96649.20;110173;1244;71388;-70
2023/02/04 06:33:37;;;;;;;;;;;;;;;-1.09;100.00;96651.11;110233;1243;69557;-69
2023/02/04 06:36:06;;;;;;;;;;;;;;;-1.04;100.00;96651.63;110339;1241;69069;-70
2023/02/04 06:38:34;;;;;;;;;;;;;;;-1.01;100.00;96650.80;110199;1241;60133;-69
2023/02/04 06:41:03;;;;;;;;;;;;;;;-0.97;100.00;96651.51;110224;1245;59681;-69
2023/02/04 06:43:32;;;;;;;;;;;;;;;-0.91;100.00;96653.69;110244;1243;70621;-69
2023/02/04 06:46:00;;;;;;;;;;;;;;;-0.86;100.00;96651.95;110146;1244;69681;-69
2023/02/04 06:48:29;;;;;;;;;;;;;;;-0.81;100.00;96656.34;110095;1244;69089;-70
2023/02/04 06:50:58;;;;;;;;;;;;;;;-0.76;100.00;96659.05;110116;1244;59727;-70
2023/02/04 06:53:27;;;;;;;;;;;;;;;-0.71;100.00;96654.77;110176;1242;60111;-70
2023/02/04 06:55:56;;;;;;;;;;;;;;;-0.69;100.00;96651.41;110182;1245;70437;-68
2023/02/04 06:58:24;;;;;;;;;;;;;;;-0.67;100.00;96653.89;110216;1244;70034;-67
2023/02/04 07:00:53;;;;;;;;;;;;;;;-0.63;100.00;96653.42;110089;1245;69767;-68
2023/02/04 07:03:21;;;;;;;;;;;;;;;-0.61;100.00;96656.42;110129;1244;59742;-68
2023/02/04 07:05:51;;;;;;;;;;;;;;;-0.56;100.00;96656.38;110166;1245;59656;-68
2023/02/04 07:08:23;;;;;;;;;;;;;;;-0.58;100.00;96650.63;110229;1245;71356;-68
2023/02/04 07:10:51;;;;;;;;;;;;;;;-0.56;100.00;96650.71;110100;1245;69775;-68
2023/02/04 07:13:20;;;;;;;;;;;;;;;-0.49;100.00;96652.48;110119;1244;69283;-68
2023/02/04 07:15:48;;;;;;;;;;;;;;;-0.43;100.00;96652.95;110170;1242;59744;-68
2023/02/04 07:18:18;;;;;;;;;;;;;;;-0.37;100.00;96654.25;110128;1245;59712;-68
2023/02/04 07:20:48;;;;;;;;;;;;;;;-0.33;100.00;96650.98;110206;1245;71782;-68
2023/02/04 07:23:16;;;;;;;;;;;;;;;-0.33;100.00;96647.90;110134;1245;68317;-65
2023/02/04 07:25:45;;;;;;;;;;;;;;;-0.29;100.00;96644.81;110149;1244;68504;-67
2023/02/04 07:28:13;;;;;;;;;;;;;;;-0.23;100.00;96644.73;110131;1245;59753;-69
2023/02/04 07:30:42;;;;;;;;;;;;;;;-0.19;100.00;96647.50;110086;1244;59680;-66
2023/02/04 07:33:11;;;;;;;;;;;;;;;-0.19;100.00;96653.83;110154;1242;71297;-69
2023/02/04 07:35:40;;;;;;;;;;;;;;;-0.16;100.00;96650.29;110152;1244;69032;-67
2023/02/04 07:38:08;;;;;;;;;;;;;;;-0.05;100.00;96650.34;110146;1244;69273;-67
2023/02/04 07:40:38;;;;;;;;;;;;;;;0.10;100.00;96648.84;110142;1244;59744;-67
2023/02/04 07:43:07;;;;;;;;;;;;;;;0.23;99.91;96647.02;110123;1244;59647;-67
2023/02/04 07:45:35;;;;;;;;;;;;;;;0.27;97.73;96653.72;110088;1244;70396;-67
2023/02/04 07:48:04;;;;;;;;;;;;;;;0.33;96.68;96651.06;109804;1242;464342;-68
2023/02/04 07:50:33;;;;;;;;;;;;;;;0.40;96.38;96653.86;110159;1243;68507;-68
2023/02/04 07:53:02;;;;;;;;;;;;;;;0.50;96.44;96647.56;110082;1244;59754;-68
2023/02/04 07:55:30;;;;;;;;;;;;;;;0.53;96.84;96651.57;110119;1244;59681;-68
2023/02/04 07:57:59;;;;;;;;;;;;;;;0.60;96.77;96652.61;110104;1243;70907;-68
2023/02/04 08:00:28;;;;;;;;;;;;;;;0.62;95.43;96654.77;110105;1242;69197;-68
2023/02/04 08:02:57;;;;;;;;;;;;;;;0.67;95.49;96653.84;110164;1244;69976;-68
2023/02/04 08:05:26;;;;;;;;;;;;;;;0.58;94.26;96653.57;110168;1244;59681;-71
2023/02/04 08:07:55;;;;;;;;;;;;;;;0.35;94.48;96659.19;110113;1245;59748;-68
2023/02/04 08:10:23;;;;;;;;;;;;;;;0.36;94.91;96660.37;110148;1244;71315;-69
2023/02/04 08:12:52;;;;;;;;;;;;;;;0.40;95.09;96660.36;110133;1243;69246;-69
2023/02/04 08:15:20;;;;;;;;;;;;;;;0.43;94.66;96663.13;110123;1244;70313;-70
2023/02/04 08:17:49;;;;;;;;;;;;;;;0.52;95.06;96661.56;110214;1242;59750;-70
2023/02/04 08:20:18;;;;;;;;;;;;;;;0.69;95.94;96667.80;110090;1244;59754;-72
2023/02/04 08:22:47;;;;;;;;;;;;;;;0.85;95.35;96668.96;110230;1244;71790;-74
2023/02/04 08:25:15;;;;;;;;;;;;;;;0.96;94.71;96667.95;110154;1244;68350;-74
2023/02/04 08:27:44;;;;;;;;;;;;;;;1.06;93.76;96670.23;110135;1244;69314;-73
2023/02/04 08:30:13;;;;;;;;;;;;;;;1.12;92.25;96671.33;110123;1244;59699;-73
2023/02/04 08:32:42;;;;;;;;;;;;;;;1.18;91.54;96678.58;110215;1244;59633;-73
2023/02/04 08:35:11;;;;;;;;;;;;;;;1.22;90.98;96679.27;110114;1244;71368;-73
2023/02/04 08:37:40;;;;;;;;;;;;;;;1.27;91.23;96681.93;110127;1244;69282;-72
2023/02/04 08:40:09;;;;;;;;;;;;;;;1.26;90.84;96682.33;110151;1244;68684;-72
2023/02/04 08:42:38;;;;;;;;;;;;;;;1.24;90.15;96685.70;110222;1241;59718;-72
2023/02/04 08:45:06;;;;;;;;;;;;;;;1.23;89.91;96687.79;110109;1244;59689;-73
2023/02/04 08:47:35;;;;;;;;;;;;;;;1.31;90.20;96692.07;110100;1244;71337;-73
2023/02/04 08:50:04;;;;;;;;;;;;;;;1.39;90.57;96691.16;110197;1243;69780;-74
2023/02/04 08:52:33;;;;;;;;;;;;;;;1.46;89.84;96695.63;110114;1241;69283;-72
2023/02/04 08:55:01;;;;;;;;;;;;;;;1.49;88.78;96698.39;110149;1242;59763;-72
2023/02/04 08:57:29;;;;;;;;;;;;;;;1.58;88.73;96697.81;110123;1243;59662;-72
2023/02/04 08:59:58;;;;;;;;;;;;;;;1.58;88.54;96696.79;110118;1251;70872;-71
2023/02/04 09:02:27;;;;;;;;;;;;;;;1.61;88.64;96699.55;110128;1244;69862;-71
2023/02/04 09:04:56;;;;;;;;;;;;;;;1.68;88.30;96707.44;110139;1243;68515;-71
2023/02/04 09:07:24;;;;;;;;;;;;;;;1.72;87.78;96707.77;110133;1243;59744;-71
2023/02/04 09:09:52;;;;;;;;;;;;;;;1.71;86.79;96701.79;110135;1244;59690;-71
2023/02/04 09:12:21;;;;;;;;;;;;;;;1.61;86.00;96696.45;110110;1245;70921;-73
2023/02/04 09:14:51;;;;;;;;;;;;;;;1.55;86.00;96697.25;110117;1241;69240;-72
2023/02/04 09:17:19;;;;;;;;;;;;;;;1.67;86.09;96699.10;110183;1243;68761;-72
2023/02/04 09:19:48;;;;;;;;;;;;;;;1.78;85.79;96695.61;110168;1245;59745;-72
2023/02/04 09:22:17;;;;;;;;;;;;;;;1.87;85.23;96685.20;110176;1244;59678;-71
2023/02/04 09:24:45;;;;;;;;;;;;;;;1.95;84.72;96685.98;110155;1241;71635;-73
2023/02/04 09:27:13;;;;;;;;;;;;;;;2.02;85.45;96687.01;110124;1243;69412;-74
2023/02/04 09:41:50;;;;;;;22.20;17.90;;;;;;;1.55;88.24;96685.89;107209;1273;610099;-72
2023/02/04 09:44:23;;;;;;;24.80;18.40;;;;;;;1.31;88.45;96683.30;109001;1254;208124;-71
2023/02/04 09:46:54;;;;;;;21.10;15.70;;;;;;;1.17;89.12;96683.46;109281;1254;57780;-73
2023/02/04 09:49:25;;;;;;;20.30;14.10;;;;;;;1.50;88.95;96686.83;109240;1254;68770;-72
2023/02/04 09:51:55;;;;;;;19.90;14.30;;;;;;;2.03;85.99;96678.73;109302;1254;69837;-71
2023/02/04 09:54:24;;;;;;;19.10;14.20;;;;;;;2.81;83.89;96677.11;109234;1254;68569;-71
2023/02/04 09:56:53;;;;;;;17.30;13.40;;;;;;;3.36;79.38;96677.01;109287;1254;57656;-71
2023/02/04 09:59:23;;;;;;;18.30;13.80;;;;;;;3.72;77.45;96677.05;109303;1254;57699;-71
2023/02/04 10:02:04;;;;;;;18.40;13.70;;;;;;;3.75;76.21;96672.61;109213;1254;68236;-72
2023/02/04 10:04:33;;;;;;;40.80;25.90;;;;;;;3.99;76.67;96670.15;109285;1254;68395;-71
2023/02/04 10:07:02;;;;;;;20.10;14.90;;;;;;;4.05;76.44;96673.79;109236;1254;68753;-71
2023/02/04 10:09:31;;;;;;;18.60;14.00;;;;;;;4.11;76.25;96678.25;109265;1254;58162;-72
2023/02/04 10:12:00;;;;;;;43.00;27.80;;;;;;;3.91;75.46;96678.71;109315;1254;58075;-72
2023/02/04 10:14:29;;;;;;;29.00;21.20;;;;;;;3.66;76.64;96683.45;109315;1253;69812;-72
2023/02/04 10:17:00;;;;;;;32.10;21.90;;;;;;;3.59;77.66;96685.23;109269;1254;68853;-72
2023/02/04 10:19:29;;;;;;;23.50;17.30;;;;;;;3.46;77.61;96687.00;109330;1254;69114;-74
2023/02/04 10:21:59;;;;;;;30.10;20.80;;;;;;;3.20;78.18;96686.50;109850;1247;58931;-73
2023/02/04 10:24:29;;;;;;;58.70;32.70;;;;;;;3.02;79.10;96689.89;110141;1246;58102;-72
2023/02/04 10:27:09;;;;;;;29.40;18.60;;;;;;;2.81;79.19;96694.13;109872;1247;69647;-73
2023/02/04 10:29:39;;;;;;;30.60;20.70;;;;;;;2.73;79.98;96693.84;110319;1241;69455;-73
2023/02/04 10:32:27;;;;;;;33.10;20.60;;;;;;;2.77;81.08;96692.45;110224;1244;69141;-73
2023/02/04 10:34:59;;;;;;;22.10;15.70;;;;;;;2.69;80.73;96692.20;110127;1243;58182;-71
2023/02/04 10:37:29;;;;;;;17.10;12.80;;;;;;;2.84;79.42;96688.48;110273;1242;58098;-71
2023/02/04 10:39:58;;;;;;;24.60;18.20;;;;;;;2.91;79.67;96684.66;110158;1241;69619;-72
2023/02/04 10:42:28;;;;;;;18.60;13.50;;;;;;;2.99;80.44;96689.90;110142;1245;69788;-71
2023/02/04 10:44:58;;;;;;;16.80;11.90;;;;;;;3.20;80.93;96688.05;110167;1247;68509;-72
2023/02/04 10:47:29;;;;;;;13.50;10.20;;;;;;;3.16;77.61;96690.50;110171;1241;58068;-73
2023/02/04 10:50:03;;;;;;;14.80;11.10;;;;;;;2.97;77.57;96688.98;110145;1244;58158;-73
2023/02/04 10:52:40;;;;;;;16.40;12.60;;;;;;;2.91;78.44;96689.63;110158;1241;69611;-73
2023/02/04 10:55:18;;;;;;;17.00;12.20;;;;;;;2.83;79.44;96688.84;110178;1241;69192;-72
2023/02/04 10:57:50;;;;;;;33.20;24.30;;;;;;;2.94;79.98;96688.96;110145;1244;68520;-72
2023/02/04 11:00:21;;;;;;;45.90;31.20;;;;;;;2.82;80.01;96690.30;110181;1244;58119;-72
2023/02/04 11:03:26;;;;;;;22.70;16.90;;;;;;;2.78;79.62;96691.19;110121;1241;58497;-72
2023/02/04 11:05:59;;;;;;;19.30;13.40;;;;;;;2.79;79.59;96694.06;109322;1250;70183;-73
2023/02/04 11:08:36;;;;;;;23.20;16.80;;;;;;;2.78;80.53;96697.20;110069;1241;69848;-73
2023/02/04 11:11:08;;;;;;;20.20;14.10;;;;;;;2.66;80.67;96694.79;110102;1245;69125;-72
2023/02/04 11:13:41;;;;;;;16.50;11.90;;;;;;;2.54;81.03;96693.84;110133;1243;58086;-73
2023/02/04 11:16:22;;;;;;;14.80;11.20;;;;;;;2.64;80.93;96695.23;110102;1244;58149;-72
2023/02/04 11:18:59;;;;;;;14.90;11.50;;;;;;;2.69;80.21;96696.50;110155;1244;69739;-72
2023/02/04 11:21:31;;;;;;;15.30;12.00;;;;;;;2.70;79.37;96699.53;110157;1241;69208;-72
2023/02/04 11:24:05;;;;;;;14.70;10.90;;;;;;;2.67;79.86;96700.77;110099;1244;69263;-72
2023/02/04 11:26:36;;;;;;;17.10;12.00;;;;;;;2.77;80.91;96702.77;110155;1241;58210;-72
2023/02/04 11:29:05;;;;;;;13.00;10.10;;;;;;;2.82;79.49;96702.69;110086;1241;58385;-73
2023/02/04 11:31:33;;;;;;;12.60;9.90;;;;;;;2.83;79.34;96704.86;110221;1244;70166;-72
2023/02/04 11:34:22;;;;;;;11.90;8.80;;;;;;;2.91;79.95;96703.56;110113;1241;68038;-72
2023/02/04 11:37:06;;;;;;;12.00;10.30;;;;;;;2.86;80.42;96702.13;110137;1244;68710;-72
2023/02/04 11:39:44;;;;;;;16.90;11.90;;;;;;;2.72;80.37;96702.20;110105;1244;58137;-71
2023/02/04 11:42:40;;;;;;;15.10;11.20;;;;;;;2.70;80.78;96703.17;110123;1243;58172;-72
2023/02/04 11:45:19;;;;;;;12.60;9.70;;;;;;;2.79;80.44;96707.85;110156;1241;70128;-72
2023/02/04 11:47:49;;;;;;;12.20;9.30;;;;;;;2.78;80.48;96704.63;110089;1241;69822;-74
2023/02/04 11:50:17;;;;;;;;;;;;;;;2.71;80.70;96703.09;110219;1241;69707;-72
2023/02/04 11:52:46;;;;;;;13.80;10.00;;;;;;;2.79;80.25;96708.17;110085;1244;58144;-72
2023/02/04 11:55:15;;;;;;;12.80;9.10;;;;;;;2.78;80.30;96703.90;110126;1243;58086;-72
2023/02/04 11:57:44;;;;;;;12.30;9.60;;;;;;;2.89;79.44;96706.79;110147;1243;69684;-72
2023/02/04 12:00:19;;;;;;;15.20;10.70;;;;;;;2.95;78.72;96707.48;110126;1241;69977;-72
2023/02/04 12:03:01;;;;;;;14.50;10.80;;;;;;;2.88;77.49;96708.92;110132;1241;69160;-71
2023/02/04 12:05:42;;;;;;;14.10;10.30;;;;;;;2.87;78.20;96709.15;110200;1241;58139;-73
2023/02/04 12:08:23;;;;;;;13.20;9.20;;;;;;;2.86;78.30;96712.61;110284;1243;58078;-74
2023/02/04 12:10:58;;;;;;;14.90;11.20;;;;;;;2.88;79.34;96711.00;110182;1245;70349;-72
2023/02/04 12:13:28;;;;;;;15.10;9.60;;;;;;;2.78;79.77;96713.05;110129;1243;68160;-73
2023/02/04 12:16:02;;;;;;;13.40;10.10;;;;;;;2.72;80.27;96713.91;110125;1245;69073;-72
2023/02/04 12:18:33;;;;;;;18.10;12.00;;;;;;;2.68;81.63;96712.39;110125;1244;58137;-72
2023/02/04 12:21:03;;;;;;;16.80;11.70;;;;;;;2.64;81.58;96712.42;110140;1243;58094;-72
2023/02/04 12:23:32;;;;;;;;;;;;;;;2.53;81.23;96712.46;110118;1241;70117;-72
2023/02/04 12:26:00;;;;;;;15.00;10.90;;;;;;;2.45;81.93;96716.46;110134;1244;69784;-72
2023/02/04 12:28:30;;;;;;;13.30;10.30;;;;;;;2.38;82.54;96719.61;110077;1241;68321;-72
2023/02/04 12:30:59;;;;;;;17.70;12.90;;;;;;;2.29;83.31;96721.42;110089;1243;58124;-72
2023/02/04 12:33:28;;;;;;;16.60;12.20;;;;;;;2.14;83.82;96725.63;110112;1243;58131;-72
2023/02/04 12:35:57;;;;;;;15.80;12.10;;;;;;;2.09;83.92;96727.94;110165;1244;68690;-73
2023/02/04 12:38:27;;;;;;;18.00;11.90;;;;;;;2.10;85.26;96734.79;110138;1244;69666;-73
2023/02/04 12:40:55;;;;;;;14.50;10.20;;;;;;;2.00;86.21;96739.23;110248;1241;69068;-73